createdAt,value
2023-07-19T00:00:30.742Z,227.95
2023-07-19T00:01:30.883Z,226.01
2023-07-19T00:02:30.881Z,224.27
2023-07-19T00:03:30.911Z,224.11
2023-07-19T00:04:30.920Z,224.41
2023-07-19T00:05:30.944Z,225.81
2023-07-19T00:06:31.000Z,225.91
2023-07-19T00:07:31.103Z,224.40
2023-07-19T00:08:31.055Z,222.06
2023-07-19T00:09:31.059Z,223.94
2023-07-19T00:10:31.117Z,225.82
2023-07-19T00:11:31.156Z,227.87
2023-07-19T00:12:36.392Z,229.12
2023-07-19T00:13:32.208Z,229.19
2023-07-19T00:14:31.197Z,229.49
2023-07-19T00:15:31.210Z,229.33
2023-07-19T00:16:31.216Z,227.52
2023-07-19T00:17:31.197Z,227.24
2023-07-19T00:18:31.180Z,227.86
2023-07-19T00:19:31.171Z,224.29
2023-07-19T00:20:31.196Z,222.64
2023-07-19T00:21:31.167Z,220.62
2023-07-19T00:22:31.161Z,217.68
2023-07-19T00:23:31.201Z,219.27
2023-07-19T00:24:31.272Z,220.08
2023-07-19T00:25:31.344Z,218.89
2023-07-19T00:26:31.381Z,218.84
2023-07-19T00:27:31.409Z,220.76
2023-07-19T00:28:31.448Z,218.14
2023-07-19T00:29:31.497Z,215.10
2023-07-19T00:30:31.574Z,211.82
2023-07-19T00:31:31.651Z,212.62
2023-07-19T00:32:31.782Z,209.39
2023-07-19T00:33:31.705Z,209.19
2023-07-19T00:34:31.820Z,212.27
2023-07-19T00:35:31.794Z,213.58
2023-07-19T00:36:31.829Z,215.10
2023-07-19T00:37:31.900Z,210.64
2023-07-19T00:38:31.945Z,209.40
2023-07-19T00:39:31.977Z,207.26
2023-07-19T00:40:31.989Z,209.05
2023-07-19T00:41:32.024Z,212.38
2023-07-19T00:42:32.010Z,214.21
2023-07-19T00:43:32.019Z,216.68
2023-07-19T00:44:32.083Z,216.41
2023-07-19T00:45:32.037Z,214.60
2023-07-19T00:46:32.152Z,215.66
2023-07-19T00:47:32.133Z,216.74
2023-07-19T00:48:32.122Z,215.86
2023-07-19T00:49:32.162Z,220.19
2023-07-19T00:50:32.152Z,223.37
2023-07-19T00:51:32.149Z,223.72
2023-07-19T00:52:32.151Z,223.86
2023-07-19T00:53:32.155Z,219.99
2023-07-19T00:54:32.151Z,218.35
2023-07-19T00:55:32.232Z,216.89
2023-07-19T00:56:32.310Z,214.86
2023-07-19T00:57:32.306Z,216.92
2023-07-19T00:58:32.367Z,219.89
2023-07-19T00:59:32.351Z,221.28
2023-07-19T01:00:32.394Z,221.69
2023-07-19T01:01:32.474Z,223.04
2023-07-19T01:02:32.456Z,224.61
2023-07-19T01:03:32.560Z,226.89
2023-07-19T01:04:32.604Z,226.22
2023-07-19T01:05:32.657Z,227.36
2023-07-19T01:06:32.723Z,230.74
2023-07-19T01:07:32.783Z,232.13
2023-07-19T01:08:32.845Z,229.86
2023-07-19T01:09:32.855Z,225.63
2023-07-19T01:10:32.885Z,226.82
2023-07-19T01:11:32.879Z,227.53
2023-07-19T01:12:32.886Z,228.92
2023-07-19T01:13:32.941Z,227.90
2023-07-19T01:14:32.990Z,227.23
2023-07-19T01:15:33.073Z,227.47
2023-07-19T01:16:33.218Z,227.84
2023-07-19T01:17:33.245Z,229.26
2023-07-19T01:18:33.211Z,232.10
2023-07-19T01:19:33.254Z,233.72
2023-07-19T01:20:33.332Z,234.16
2023-07-19T01:21:33.714Z,234.43
2023-07-19T01:22:33.467Z,235.22
2023-07-19T01:23:33.368Z,234.82
2023-07-19T01:24:33.422Z,237.56
2023-07-19T01:25:33.446Z,238.51
2023-07-19T01:26:33.474Z,235.39
2023-07-19T01:27:33.451Z,231.76
2023-07-19T01:28:33.528Z,231.45
2023-07-19T01:29:33.544Z,231.89
2023-07-19T01:30:33.564Z,232.25
2023-07-19T01:31:33.639Z,231.98
2023-07-19T01:32:33.608Z,232.82
2023-07-19T01:33:34.414Z,235.67
2023-07-19T01:34:33.579Z,237.93
2023-07-19T01:35:33.560Z,238.85
2023-07-19T01:36:33.589Z,238.06
2023-07-19T01:37:33.616Z,238.39
2023-07-19T01:38:33.677Z,239.83
2023-07-19T01:39:33.763Z,240.32
2023-07-19T01:40:33.781Z,236.62
2023-07-19T01:41:33.895Z,236.10
2023-07-19T01:42:33.948Z,235.07
2023-07-19T01:43:33.969Z,234.25
2023-07-19T01:44:34.013Z,234.47
2023-07-19T01:45:34.216Z,233.41
2023-07-19T01:46:34.180Z,233.23
2023-07-19T01:47:34.356Z,232.40
2023-07-19T01:48:34.312Z,234.88
2023-07-19T01:49:34.335Z,236.75
2023-07-19T01:50:34.391Z,232.73
2023-07-19T01:51:34.468Z,231.60
2023-07-19T01:52:34.769Z,230.76
2023-07-19T01:53:34.588Z,233.29
2023-07-19T01:54:34.681Z,234.32
2023-07-19T01:55:34.682Z,235.76
2023-07-19T01:56:34.756Z,235.12
2023-07-19T01:57:34.790Z,236.14
2023-07-19T01:58:34.852Z,236.05
2023-07-19T01:59:34.881Z,238.22
2023-07-19T02:00:34.937Z,237.00
2023-07-19T02:01:35.121Z,234.22
2023-07-19T02:02:35.236Z,234.47
2023-07-19T02:03:35.209Z,236.59
2023-07-19T02:04:35.355Z,237.24
2023-07-19T02:05:35.346Z,236.77
2023-07-19T02:06:35.356Z,237.33
2023-07-19T02:07:35.394Z,240.38
2023-07-19T02:08:35.479Z,240.99
2023-07-19T02:09:35.562Z,239.82
2023-07-19T02:10:35.571Z,239.40
2023-07-19T02:11:35.714Z,238.40
2023-07-19T02:12:35.700Z,240.85
2023-07-19T02:13:35.731Z,241.28
2023-07-19T02:14:35.802Z,241.72
2023-07-19T02:15:35.863Z,241.96
2023-07-19T02:16:36.206Z,242.50
2023-07-19T02:17:35.995Z,242.54
2023-07-19T02:18:36.038Z,241.33
2023-07-19T02:19:35.886Z,240.35
2023-07-19T02:20:35.846Z,238.24
2023-07-19T02:21:35.845Z,235.38
2023-07-19T02:22:35.940Z,237.37
2023-07-19T02:23:35.834Z,239.13
2023-07-19T02:24:35.821Z,241.17
2023-07-19T02:25:35.831Z,243.71
2023-07-19T02:26:35.794Z,245.17
2023-07-19T02:27:35.812Z,245.92
2023-07-19T02:28:35.830Z,244.10
2023-07-19T02:29:35.933Z,243.65
2023-07-19T02:30:36.039Z,242.01
2023-07-19T02:31:36.214Z,241.96
2023-07-19T02:32:36.115Z,242.78
2023-07-19T02:33:36.114Z,243.07
2023-07-19T02:34:36.159Z,244.21
2023-07-19T02:35:36.173Z,243.51
2023-07-19T02:36:36.175Z,244.13
2023-07-19T02:37:36.223Z,242.18
2023-07-19T02:38:36.255Z,238.44
2023-07-19T02:39:36.326Z,237.52
2023-07-19T02:40:36.366Z,236.51
2023-07-19T02:41:36.482Z,237.63
2023-07-19T02:42:36.489Z,238.01
2023-07-19T02:43:36.530Z,239.64
2023-07-19T02:44:36.687Z,238.65
2023-07-19T02:45:36.574Z,238.80
2023-07-19T02:46:36.933Z,238.74
2023-07-19T02:47:36.502Z,237.06
2023-07-19T02:48:36.481Z,236.63
2023-07-19T02:49:37.692Z,237.30
2023-07-19T02:50:36.548Z,239.23
2023-07-19T02:51:36.449Z,239.60
2023-07-19T02:52:36.439Z,238.42
2023-07-19T02:53:36.446Z,238.53
2023-07-19T02:54:36.466Z,239.00
2023-07-19T02:55:36.423Z,240.72
2023-07-19T02:56:36.417Z,241.61
2023-07-19T02:57:36.433Z,240.52
2023-07-19T02:58:36.426Z,241.33
2023-07-19T02:59:36.408Z,241.56
2023-07-19T03:00:36.403Z,241.37
2023-07-19T03:01:36.389Z,242.67
2023-07-19T03:02:36.414Z,241.59
2023-07-19T03:03:36.469Z,240.26
2023-07-19T03:04:36.356Z,241.61
2023-07-19T03:05:36.575Z,242.00
2023-07-19T03:06:36.394Z,241.01
2023-07-19T03:07:36.385Z,240.36
2023-07-19T03:08:36.349Z,241.80
2023-07-19T03:09:36.315Z,241.61
2023-07-19T03:10:36.352Z,240.03
2023-07-19T03:11:36.333Z,239.87
2023-07-19T03:12:36.312Z,239.80
2023-07-19T03:13:36.527Z,239.15
2023-07-19T03:14:36.512Z,240.70
2023-07-19T03:15:36.334Z,239.29
2023-07-19T03:16:36.323Z,239.69
2023-07-19T03:17:36.284Z,236.19
2023-07-19T03:18:36.286Z,230.96
2023-07-19T03:19:36.285Z,230.74
2023-07-19T03:20:36.286Z,231.59
2023-07-19T03:21:36.276Z,228.76
2023-07-19T03:22:36.307Z,229.66
2023-07-19T03:23:36.258Z,231.69
2023-07-19T03:24:36.245Z,235.18
2023-07-19T03:25:36.258Z,235.77
2023-07-19T03:26:36.249Z,237.43
2023-07-19T03:27:36.219Z,240.06
2023-07-19T03:28:36.241Z,240.13
2023-07-19T03:29:36.242Z,240.85
2023-07-19T03:30:36.237Z,242.07
2023-07-19T03:31:36.221Z,245.18
2023-07-19T03:32:36.278Z,244.46
2023-07-19T03:33:36.208Z,244.66
2023-07-19T03:34:36.202Z,247.16
2023-07-19T03:35:36.258Z,247.03
2023-07-19T03:36:36.257Z,246.98
2023-07-19T03:37:36.233Z,247.96
2023-07-19T03:38:36.165Z,248.01
2023-07-19T03:39:36.310Z,247.30
2023-07-19T03:40:36.154Z,246.98
2023-07-19T03:41:36.145Z,246.64
2023-07-19T03:42:36.136Z,246.11
2023-07-19T03:43:36.154Z,246.18
2023-07-19T03:44:36.169Z,247.87
2023-07-19T03:45:36.080Z,246.71
2023-07-19T03:46:36.131Z,246.64
2023-07-19T03:47:36.119Z,249.47
2023-07-19T03:48:36.085Z,249.86
2023-07-19T03:49:36.105Z,249.54
2023-07-19T03:50:36.096Z,249.17
2023-07-19T03:51:36.096Z,246.72
2023-07-19T03:52:36.031Z,245.75
2023-07-19T03:53:36.079Z,248.13
2023-07-19T03:54:36.040Z,246.60
2023-07-19T03:55:36.059Z,244.96
2023-07-19T03:56:36.058Z,243.72
2023-07-19T03:57:35.994Z,242.50
2023-07-19T03:58:36.071Z,237.58
2023-07-19T03:59:35.993Z,236.89
2023-07-19T04:00:36.005Z,237.73
2023-07-19T04:01:36.084Z,238.71
2023-07-19T04:02:35.999Z,241.77
2023-07-19T04:03:36.043Z,243.36
2023-07-19T04:04:35.997Z,243.17
2023-07-19T04:05:36.015Z,238.83
2023-07-19T04:06:36.507Z,236.52
2023-07-19T04:07:35.934Z,238.72
2023-07-19T04:08:35.940Z,234.33
2023-07-19T04:09:35.952Z,232.56
2023-07-19T04:10:35.938Z,234.50
2023-07-19T04:11:35.987Z,233.63
2023-07-19T04:12:35.940Z,232.53
2023-07-19T04:13:35.933Z,233.70
2023-07-19T04:14:35.900Z,232.77
2023-07-19T04:15:35.895Z,230.71
2023-07-19T04:16:35.948Z,227.83
2023-07-19T04:17:35.900Z,226.16
2023-07-19T04:18:35.878Z,229.21
2023-07-19T04:19:35.833Z,231.79
2023-07-19T04:20:35.881Z,234.29
2023-07-19T04:21:35.871Z,234.95
2023-07-19T04:22:35.861Z,237.27
2023-07-19T04:23:35.837Z,239.37
2023-07-19T04:24:36.906Z,242.15
2023-07-19T04:25:35.821Z,242.09
2023-07-19T04:26:35.861Z,241.75
2023-07-19T04:27:35.853Z,243.14
2023-07-19T04:28:35.845Z,244.74
2023-07-19T04:29:35.789Z,245.54
2023-07-19T04:30:35.807Z,245.80
2023-07-19T04:31:35.795Z,244.37
2023-07-19T04:32:35.925Z,237.57
2023-07-19T04:33:35.942Z,236.63
2023-07-19T04:34:35.803Z,239.05
2023-07-19T04:35:35.763Z,242.81
2023-07-19T04:36:35.913Z,240.45
2023-07-19T04:37:35.960Z,240.16
2023-07-19T04:38:36.023Z,240.81
2023-07-19T04:39:36.079Z,239.49
2023-07-19T04:40:36.149Z,239.53
2023-07-19T04:41:36.180Z,243.23
2023-07-19T04:42:36.182Z,245.62
2023-07-19T04:43:36.254Z,246.06
2023-07-19T04:44:36.265Z,247.80
2023-07-19T04:45:36.282Z,248.93
2023-07-19T04:46:36.362Z,249.14
2023-07-19T04:47:36.402Z,250.00
2023-07-19T04:48:44.037Z,249.86
2023-07-19T04:49:36.408Z,250.10
2023-07-19T04:50:36.406Z,250.88
2023-07-19T04:51:36.438Z,252.46
2023-07-19T04:52:36.368Z,256.07
2023-07-19T04:53:36.411Z,261.27
2023-07-19T04:54:36.382Z,254.75
2023-07-19T04:55:36.345Z,249.13
2023-07-19T04:56:36.363Z,246.06
2023-07-19T04:57:36.361Z,247.78
2023-07-19T04:58:36.341Z,250.19
2023-07-19T04:59:36.352Z,249.42
2023-07-19T05:02:06.385Z,25.00
2023-07-19T05:02:55.762Z,25.00
2023-07-19T05:03:55.688Z,25.00
2023-07-19T05:04:55.731Z,25.00
2023-07-19T05:05:55.700Z,25.00
2023-07-19T05:06:55.682Z,25.00
2023-07-19T05:07:55.689Z,25.88
2023-07-19T05:08:55.661Z,26.12
2023-07-19T05:09:55.678Z,25.00
2023-07-19T05:10:55.672Z,25.00
2023-07-19T05:11:55.680Z,25.00
2023-07-19T05:12:55.650Z,25.26
2023-07-19T05:13:55.612Z,25.00
2023-07-19T05:14:55.629Z,25.13
2023-07-19T05:15:55.602Z,26.49
2023-07-19T05:16:55.640Z,28.36
2023-07-19T05:17:55.673Z,28.63
2023-07-19T05:18:55.616Z,28.13
2023-07-19T05:19:55.594Z,26.96
2023-07-19T05:20:55.608Z,25.00
2023-07-19T05:21:55.592Z,25.23
2023-07-19T05:22:55.693Z,27.35
2023-07-19T05:23:55.706Z,29.90
2023-07-19T05:24:55.727Z,35.35
2023-07-19T05:25:55.766Z,41.53
2023-07-19T05:26:55.774Z,40.92
2023-07-19T05:27:55.868Z,39.77
2023-07-19T05:28:55.867Z,37.24
2023-07-19T05:29:55.918Z,36.13
2023-07-19T05:30:55.990Z,36.29
2023-07-19T05:31:56.110Z,37.35
2023-07-19T05:32:56.092Z,34.08
2023-07-19T05:33:56.147Z,31.84
2023-07-19T05:34:56.205Z,25.65
2023-07-19T05:35:56.242Z,26.88
2023-07-19T05:36:56.310Z,25.98
2023-07-19T05:37:58.601Z,28.20
2023-07-19T05:38:56.309Z,36.94
2023-07-19T05:39:56.303Z,26.88
2023-07-19T05:40:56.297Z,26.05
2023-07-19T05:41:56.286Z,31.09
2023-07-19T05:42:56.303Z,38.94
2023-07-19T05:44:09.646Z,36.01
2023-07-19T05:44:57.306Z,23.90
2023-07-19T05:45:56.292Z,0.00
2023-07-19T05:46:56.298Z,0.00
2023-07-19T05:47:56.294Z,0.00
2023-07-19T05:48:56.240Z,0.00
2023-07-19T05:49:56.253Z,7.04
2023-07-19T05:50:56.232Z,29.49
2023-07-19T05:51:56.252Z,25.00
2023-07-19T05:52:56.272Z,29.44
2023-07-19T05:53:56.217Z,44.27
2023-07-19T05:54:56.207Z,59.93
2023-07-19T05:55:56.213Z,66.48
2023-07-19T05:56:56.174Z,83.85
2023-07-19T05:57:56.199Z,97.63
2023-07-19T05:58:56.176Z,111.55
2023-07-19T06:00:03.588Z,120.62
2023-07-19T06:00:57.225Z,121.00
2023-07-19T06:01:56.234Z,117.15
2023-07-19T06:02:56.602Z,112.05
2023-07-19T06:03:56.249Z,112.87
2023-07-19T06:04:56.203Z,98.30
2023-07-19T06:05:56.129Z,92.56
2023-07-19T06:06:56.125Z,86.88
2023-07-19T06:08:01.734Z,89.38
2023-07-19T06:08:57.088Z,89.81
2023-07-19T06:09:56.109Z,92.78
2023-07-19T06:10:56.098Z,96.63
2023-07-19T06:11:56.086Z,100.91
2023-07-19T06:12:56.076Z,109.57
2023-07-19T06:13:56.068Z,107.13
2023-07-19T06:14:56.080Z,114.79
2023-07-19T06:15:56.126Z,117.52
2023-07-19T06:16:56.190Z,120.65
2023-07-19T06:17:56.264Z,124.90
2023-07-19T06:18:56.296Z,112.13
2023-07-19T06:19:56.336Z,110.89
2023-07-19T06:20:56.359Z,110.39
2023-07-19T06:21:56.394Z,103.55
2023-07-19T06:22:56.530Z,114.22
2023-07-19T06:23:56.566Z,120.79
2023-07-19T06:24:56.583Z,124.26
2023-07-19T06:25:56.636Z,127.84
2023-07-19T06:26:56.650Z,126.53
2023-07-19T06:27:56.726Z,103.61
2023-07-19T06:28:56.790Z,95.73
2023-07-19T06:29:56.838Z,91.72
2023-07-19T06:30:56.917Z,88.51
2023-07-19T06:31:56.963Z,105.83
2023-07-19T06:32:57.052Z,118.00
2023-07-19T06:33:57.156Z,127.81
2023-07-19T06:34:57.085Z,127.56
2023-07-19T06:35:57.134Z,130.94
2023-07-19T06:36:57.193Z,120.59
2023-07-19T06:37:57.213Z,127.64
2023-07-19T06:38:57.280Z,122.86
2023-07-19T06:39:57.289Z,119.09
2023-07-19T06:40:57.309Z,122.14
2023-07-19T06:41:57.348Z,133.25
2023-07-19T06:42:57.387Z,135.67
2023-07-19T06:43:57.377Z,118.38
2023-07-19T06:44:57.409Z,107.31
2023-07-19T06:45:57.412Z,100.77
2023-07-19T06:46:57.462Z,95.16
2023-07-19T06:47:57.493Z,93.86
2023-07-19T06:48:57.489Z,97.47
2023-07-19T06:49:57.494Z,94.46
2023-07-19T06:50:57.488Z,81.58
2023-07-19T06:51:57.513Z,72.07
2023-07-19T06:52:57.549Z,74.13
2023-07-19T06:54:08.972Z,64.71
2023-07-19T06:54:58.541Z,65.39
2023-07-19T06:55:57.494Z,68.15
2023-07-19T06:56:57.523Z,73.09
2023-07-19T06:57:57.531Z,87.99
2023-07-19T06:58:57.476Z,105.68
2023-07-19T06:59:57.489Z,110.95
2023-07-19T07:00:58.037Z,108.96
2023-07-19T07:01:57.494Z,100.09
2023-07-19T07:02:57.597Z,74.69
2023-07-19T07:03:57.465Z,31.88
2023-07-19T07:04:57.437Z,30.93
2023-07-19T07:05:57.457Z,25.00
2023-07-19T07:06:57.488Z,25.31
2023-07-19T07:07:57.499Z,27.72
2023-07-19T07:08:57.581Z,31.05
2023-07-19T07:09:57.595Z,39.44
2023-07-19T07:10:57.637Z,41.34
2023-07-19T07:11:57.700Z,42.87
2023-07-19T07:12:57.751Z,47.43
2023-07-19T07:13:57.731Z,45.35
2023-07-19T07:14:57.812Z,52.03
2023-07-19T07:15:57.867Z,58.10
2023-07-19T07:16:57.921Z,68.05
2023-07-19T07:17:58.006Z,74.80
2023-07-19T07:18:57.981Z,69.62
2023-07-19T07:19:59.916Z,74.31
2023-07-19T07:20:58.060Z,68.59
2023-07-19T07:21:58.061Z,62.62
2023-07-19T07:22:58.143Z,57.59
2023-07-19T07:23:58.116Z,47.29
2023-07-19T07:24:58.129Z,53.53
2023-07-19T07:25:58.135Z,63.87
2023-07-19T07:26:58.177Z,50.30
2023-07-19T07:27:58.247Z,39.83
2023-07-19T07:28:58.186Z,34.09
2023-07-19T07:29:58.240Z,41.73
2023-07-19T07:30:58.320Z,34.37
2023-07-19T07:31:58.289Z,33.00
2023-07-19T07:32:58.330Z,34.77
2023-07-19T07:33:58.323Z,54.10
2023-07-19T07:34:58.329Z,68.53
2023-07-19T07:35:58.331Z,71.23
2023-07-19T07:36:58.336Z,56.91
2023-07-19T07:37:58.404Z,28.03
2023-07-19T07:38:58.418Z,23.06
2023-07-19T07:39:58.428Z,28.40
2023-07-19T07:40:58.441Z,36.45
2023-07-19T07:41:58.509Z,56.74
2023-07-19T07:42:58.542Z,69.98
2023-07-19T07:43:58.551Z,70.03
2023-07-19T07:44:58.564Z,67.68
2023-07-19T07:45:58.613Z,68.08
2023-07-19T07:46:58.726Z,57.35
2023-07-19T07:47:58.709Z,62.87
2023-07-19T07:48:58.726Z,80.12
2023-07-19T07:49:58.778Z,92.97
2023-07-19T07:50:58.824Z,104.79
2023-07-19T07:51:58.842Z,105.54
2023-07-19T07:53:11.205Z,99.86
2023-07-19T07:53:59.895Z,100.52
2023-07-19T07:54:58.903Z,102.99
2023-07-19T07:55:58.883Z,102.36
2023-07-19T07:56:58.929Z,92.62
2023-07-19T07:57:58.928Z,82.19
2023-07-19T07:58:58.875Z,86.03
2023-07-19T07:59:58.874Z,77.40
2023-07-19T08:00:58.899Z,95.40
2023-07-19T08:01:58.889Z,94.88
2023-07-19T08:02:59.089Z,99.47
2023-07-19T08:03:59.058Z,107.73
2023-07-19T08:04:58.960Z,125.39
2023-07-19T08:05:59.029Z,139.57
2023-07-19T08:06:59.064Z,145.58
2023-07-19T08:07:59.102Z,145.38
2023-07-19T08:08:59.132Z,111.74
2023-07-19T08:09:59.190Z,118.68
2023-07-19T08:10:59.264Z,119.93
2023-07-19T08:11:59.318Z,117.09
2023-07-19T08:12:59.369Z,116.92
2023-07-19T08:13:59.420Z,108.05
2023-07-19T08:14:59.424Z,104.64
2023-07-19T08:15:59.485Z,98.37
2023-07-19T08:17:02.368Z,93.55
2023-07-19T08:17:59.547Z,103.99
2023-07-19T08:18:59.517Z,113.46
2023-07-19T08:19:59.523Z,119.64
2023-07-19T08:20:59.502Z,119.08
2023-07-19T08:21:59.490Z,107.59
2023-07-19T08:23:01.366Z,92.59
2023-07-19T08:23:59.478Z,85.64
2023-07-19T08:25:08.414Z,86.33
2023-07-19T08:26:00.492Z,89.45
2023-07-19T08:26:59.458Z,89.26
2023-07-19T08:27:59.573Z,96.10
2023-07-19T08:28:59.470Z,65.50
2023-07-19T08:29:59.453Z,67.04
2023-07-19T08:30:59.505Z,69.86
2023-07-19T08:31:59.465Z,66.81
2023-07-19T08:32:59.472Z,72.08
2023-07-19T08:33:59.437Z,72.50
2023-07-19T08:34:59.443Z,54.87
2023-07-19T08:35:59.472Z,45.52
2023-07-19T08:36:59.410Z,37.33
2023-07-19T08:37:59.408Z,44.98
2023-07-19T08:38:59.420Z,25.00
2023-07-19T08:39:59.414Z,28.83
2023-07-19T08:40:59.368Z,25.12
2023-07-19T08:41:59.387Z,26.40
2023-07-19T08:42:59.467Z,40.87
2023-07-19T08:43:59.382Z,48.40
2023-07-19T08:44:59.385Z,34.71
2023-07-19T08:45:59.390Z,30.67
2023-07-19T08:46:59.336Z,25.00
2023-07-19T08:47:59.365Z,23.85
2023-07-19T08:48:59.329Z,25.76
2023-07-19T08:49:59.370Z,38.83
2023-07-19T08:50:59.407Z,53.09
2023-07-19T08:51:59.396Z,27.17
2023-07-19T08:52:59.501Z,24.51
2023-07-19T08:53:59.511Z,34.22
2023-07-19T08:54:59.501Z,22.19
2023-07-19T08:55:59.599Z,38.58
2023-07-19T08:56:59.603Z,42.41
2023-07-19T08:57:59.652Z,60.82
2023-07-19T08:58:59.678Z,72.67
2023-07-19T08:59:59.699Z,89.36
2023-07-19T09:00:59.708Z,112.23
2023-07-19T09:01:59.753Z,134.54
2023-07-19T09:02:59.834Z,137.18
2023-07-19T09:03:59.812Z,128.00
2023-07-19T09:04:59.784Z,91.98
2023-07-19T09:05:59.797Z,100.23
2023-07-19T09:06:59.865Z,112.90
2023-07-19T09:07:59.846Z,142.47
2023-07-19T09:08:59.852Z,163.20
2023-07-19T09:09:59.850Z,167.36
2023-07-19T09:10:59.830Z,153.02
2023-07-19T09:11:59.858Z,146.85
2023-07-19T09:12:59.861Z,146.28
2023-07-19T09:13:59.844Z,164.88
2023-07-19T09:14:59.872Z,179.56
2023-07-19T09:15:59.875Z,182.37
2023-07-19T09:16:59.897Z,188.32
2023-07-19T09:17:59.949Z,192.93
2023-07-19T09:18:59.943Z,180.03
2023-07-19T09:19:59.929Z,159.50
2023-07-19T09:20:59.928Z,165.95
2023-07-19T09:21:59.990Z,125.15
2023-07-19T09:23:00.103Z,82.00
2023-07-19T09:24:00.021Z,80.22
2023-07-19T09:25:00.051Z,101.05
2023-07-19T09:26:00.092Z,132.18
2023-07-19T09:27:00.177Z,159.16
2023-07-19T09:28:00.199Z,113.97
2023-07-19T09:29:00.261Z,132.96
2023-07-19T09:30:00.323Z,150.84
2023-07-19T09:31:11.560Z,165.91
2023-07-19T09:32:01.346Z,154.03
2023-07-19T09:33:00.324Z,153.20
2023-07-19T09:34:00.273Z,142.49
2023-07-19T09:35:00.256Z,118.90
2023-07-19T09:36:00.265Z,98.42
2023-07-19T09:37:00.261Z,88.62
2023-07-19T09:38:00.308Z,93.96
2023-07-19T09:39:00.271Z,88.62
2023-07-19T09:40:00.229Z,49.57
2023-07-19T09:41:00.279Z,26.87
2023-07-19T09:42:00.211Z,37.37
2023-07-19T09:43:00.274Z,47.86
2023-07-19T09:44:00.165Z,38.54
2023-07-19T09:45:00.279Z,27.06
2023-07-19T09:46:00.429Z,35.74
2023-07-19T09:47:01.299Z,44.79
2023-07-19T09:48:00.542Z,57.36
2023-07-19T09:49:00.546Z,57.60
2023-07-19T09:50:00.621Z,87.87
2023-07-19T09:51:00.672Z,76.49
2023-07-19T09:52:00.668Z,58.28
2023-07-19T09:53:00.696Z,58.66
2023-07-19T09:54:00.740Z,60.31
2023-07-19T09:55:00.749Z,68.39
2023-07-19T09:56:00.809Z,80.08
2023-07-19T09:57:00.818Z,59.99
2023-07-19T09:58:00.823Z,56.59
2023-07-19T09:59:00.808Z,81.96
2023-07-19T10:00:00.814Z,52.07
2023-07-19T10:01:00.937Z,24.87
2023-07-19T10:02:00.928Z,27.99
2023-07-19T10:03:01.100Z,34.79
2023-07-19T10:04:00.885Z,42.80
2023-07-19T10:05:00.980Z,77.38
2023-07-19T10:06:00.918Z,85.48
2023-07-19T10:07:00.912Z,106.98
2023-07-19T10:08:00.945Z,93.62
2023-07-19T10:09:00.918Z,42.40
2023-07-19T10:10:00.948Z,51.02
2023-07-19T10:11:00.970Z,44.60
2023-07-19T10:12:00.998Z,40.45
2023-07-19T10:13:00.973Z,42.80
2023-07-19T10:14:08.656Z,39.36
2023-07-19T10:15:01.967Z,24.18
2023-07-19T10:16:00.945Z,0.00
2023-07-19T10:17:00.998Z,0.00
2023-07-19T10:18:01.255Z,0.00
2023-07-19T10:19:00.941Z,0.00
2023-07-19T10:20:00.943Z,0.00
2023-07-19T10:21:00.926Z,0.00
2023-07-19T10:22:00.896Z,0.00
2023-07-19T10:23:00.938Z,0.00
2023-07-19T10:24:00.914Z,23.66
2023-07-19T10:25:00.966Z,35.39
2023-07-19T10:26:04.283Z,27.37
2023-07-19T10:27:00.988Z,47.91
2023-07-19T10:28:00.985Z,56.70
2023-07-19T10:29:00.999Z,38.98
2023-07-19T10:30:00.941Z,54.72
2023-07-19T10:31:17.164Z,69.91
2023-07-19T10:32:04.473Z,70.12
2023-07-19T10:33:00.985Z,61.79
2023-07-19T10:34:01.404Z,16.75
2023-07-19T10:35:00.905Z,0.00
2023-07-19T10:36:00.957Z,0.00
2023-07-19T10:37:00.887Z,0.00
2023-07-19T10:38:01.599Z,0.00
2023-07-19T10:39:00.921Z,0.00
2023-07-19T10:40:00.903Z,25.00
2023-07-19T10:41:00.902Z,48.45
2023-07-19T10:42:00.905Z,38.79
2023-07-19T10:43:00.913Z,49.64
2023-07-19T10:44:02.601Z,54.93
2023-07-19T10:45:00.840Z,28.20
2023-07-19T10:46:00.875Z,21.53
2023-07-19T10:47:01.300Z,0.00
2023-07-19T10:48:00.866Z,0.00
2023-07-19T10:49:00.909Z,0.00
2023-07-19T10:50:00.847Z,0.00
2023-07-19T10:51:00.784Z,31.09
2023-07-19T10:52:00.854Z,63.85
2023-07-19T10:53:00.785Z,70.24
2023-07-19T10:54:01.006Z,93.47
2023-07-19T10:55:17.965Z,67.47
2023-07-19T10:56:01.746Z,40.13
2023-07-19T10:57:00.814Z,31.48
2023-07-19T10:58:00.740Z,71.39
2023-07-19T10:59:00.797Z,96.48
2023-07-19T11:00:00.758Z,72.28
2023-07-19T11:01:00.790Z,42.60
2023-07-19T11:02:00.812Z,20.42
2023-07-19T11:03:00.775Z,25.00
2023-07-19T11:04:00.739Z,15.47
2023-07-19T11:05:00.716Z,36.66
2023-07-19T11:06:00.762Z,59.27
2023-07-19T11:07:03.224Z,72.88
2023-07-19T11:08:00.777Z,62.25
2023-07-19T11:09:00.771Z,34.37
2023-07-19T11:10:00.781Z,61.88
2023-07-19T11:11:00.759Z,93.59
2023-07-19T11:12:00.771Z,49.11
2023-07-19T11:13:00.762Z,35.97
2023-07-19T11:14:00.742Z,25.00
2023-07-19T11:15:00.724Z,33.97
2023-07-19T11:16:00.720Z,58.31
2023-07-19T11:17:00.767Z,65.96
2023-07-19T11:18:00.796Z,103.19
2023-07-19T11:19:00.717Z,102.94
2023-07-19T11:20:00.727Z,98.44
2023-07-19T11:21:00.745Z,138.82
2023-07-19T11:22:00.707Z,144.98
2023-07-19T11:23:00.690Z,124.49
2023-07-19T11:24:00.738Z,91.62
2023-07-19T11:25:00.719Z,86.91
2023-07-19T11:26:00.711Z,55.84
2023-07-19T11:27:00.662Z,72.44
2023-07-19T11:28:00.657Z,100.06
2023-07-19T11:29:00.768Z,143.36
2023-07-19T11:30:00.666Z,139.54
2023-07-19T11:31:00.687Z,176.23
2023-07-19T11:32:00.632Z,146.95
2023-07-19T11:33:00.641Z,84.23
2023-07-19T11:34:00.670Z,58.08
2023-07-19T11:35:00.660Z,23.55
2023-07-19T11:36:00.619Z,14.53
2023-07-19T11:37:00.643Z,28.65
2023-07-19T11:38:00.606Z,61.16
2023-07-19T11:39:00.596Z,59.69
2023-07-19T11:40:00.576Z,25.00
2023-07-19T11:41:00.554Z,21.66
2023-07-19T11:42:00.569Z,50.86
2023-07-19T11:43:00.581Z,84.16
2023-07-19T11:44:00.596Z,103.97
2023-07-19T11:45:00.574Z,51.36
2023-07-19T11:46:00.569Z,25.00
2023-07-19T11:47:00.578Z,39.00
2023-07-19T11:48:00.633Z,103.13
2023-07-19T11:49:00.582Z,156.08
2023-07-19T11:50:00.531Z,117.83
2023-07-19T11:51:00.507Z,140.61
2023-07-19T11:52:00.517Z,109.19
2023-07-19T11:53:00.510Z,94.94
2023-07-19T11:54:00.508Z,120.08
2023-07-19T11:55:00.527Z,59.77
2023-07-19T11:56:03.072Z,35.06
2023-07-19T11:57:01.483Z,36.13
2023-07-19T11:58:00.476Z,38.80
2023-07-19T11:59:00.484Z,22.95
2023-07-19T12:00:00.463Z,22.91
2023-07-19T12:01:00.481Z,50.02
2023-07-19T12:02:00.428Z,25.00
2023-07-19T12:03:00.511Z,14.11
2023-07-19T12:04:00.541Z,23.37
2023-07-19T12:05:00.420Z,26.12
2023-07-19T12:06:00.429Z,44.34
2023-07-19T12:07:00.462Z,56.03
2023-07-19T12:08:00.495Z,107.12
2023-07-19T12:09:00.486Z,110.36
2023-07-19T12:10:00.552Z,70.20
2023-07-19T12:11:00.579Z,94.48
2023-07-19T12:12:00.532Z,149.70
2023-07-19T12:13:00.544Z,153.38
2023-07-19T12:14:00.640Z,122.11
2023-07-19T12:15:00.684Z,107.62
2023-07-19T12:16:00.716Z,84.95
2023-07-19T12:17:00.751Z,105.10
2023-07-19T12:18:00.759Z,72.93
2023-07-19T12:19:00.775Z,101.78
2023-07-19T12:20:00.774Z,138.78
2023-07-19T12:21:00.869Z,158.30
2023-07-19T12:22:00.957Z,139.48
2023-07-19T12:23:01.969Z,77.39
2023-07-19T12:24:00.885Z,69.85
2023-07-19T12:25:00.851Z,65.94
2023-07-19T12:26:00.870Z,112.26
2023-07-19T12:27:00.910Z,91.38
2023-07-19T12:28:00.854Z,62.24
2023-07-19T12:29:00.900Z,91.16
2023-07-19T12:30:03.770Z,119.68
2023-07-19T12:31:00.858Z,120.85
2023-07-19T12:32:00.857Z,120.82
2023-07-19T12:33:00.830Z,125.58
2023-07-19T12:34:00.822Z,121.76
2023-07-19T12:35:00.867Z,94.88
2023-07-19T12:36:00.787Z,96.35
2023-07-19T12:37:00.808Z,74.12
2023-07-19T12:38:00.800Z,94.62
2023-07-19T12:39:00.793Z,102.32
2023-07-19T12:40:00.757Z,151.76
2023-07-19T12:41:00.765Z,129.90